Metar z pełnej godziny Komunikat METAR ze strony awiacja.imgw.pl Metar G00 EPWR METAR EPWR 070100Z 29011KT 9999 -RA BKN007 OVC009 02/01 Q1011 =